Time;durP1;ratioP1;P1;durP2;ratioP2;P2;SDS_P1;SDS_P2;PMS_P1;PMS_P2;Temp;Humidity;BMP_temperature;BMP_pressure;BME280_temperature;BME280_humidity;BME280_pressure;Samples;Min_cycle;Max_cycle;Signal;HPM_P1;HPM_P2
2022/09/09 00:01:03;;;;;;;0.40;0.40;;;13.90;99.90;;;;;;5091827;28;20620;-66
2022/09/09 00:03:57;;;;;;;0.40;0.40;;;13.80;99.90;;;;;;5092241;28;20454;-66
2022/09/09 00:06:53;;;;;;;0.40;0.40;;;13.80;99.90;;;;;;5092121;28;20802;-67
2022/09/09 00:09:48;;;;;;;0.40;0.40;;;13.80;99.90;;;;;;5092325;28;20982;-66
2022/09/09 00:12:44;;;;;;;0.40;0.40;;;13.80;99.90;;;;;;5092244;28;20457;-68
2022/09/09 00:15:39;;;;;;;0.50;0.50;;;13.80;99.90;;;;;;5092178;28;20437;-66
2022/09/09 00:18:36;;;;;;;0.40;0.40;;;13.70;99.90;;;;;;5092601;28;20433;-66
2022/09/09 00:21:33;;;;;;;0.40;0.40;;;13.70;99.90;;;;;;5091968;28;20418;-66
2022/09/09 00:24:27;;;;;;;0.40;0.40;;;13.70;99.90;;;;;;5092418;28;20446;-66
2022/09/09 00:27:22;;;;;;;0.40;0.40;;;13.60;99.90;;;;;;5092304;28;20814;-67
2022/09/09 00:30:19;;;;;;;0.40;0.40;;;13.60;99.90;;;;;;5091792;28;20552;-69
2022/09/09 00:33:15;;;;;;;0.47;0.47;;;13.60;99.90;;;;;;5092988;28;20458;-68
2022/09/09 00:36:10;;;;;;;0.40;0.40;;;13.50;99.90;;;;;;5091372;28;20794;-67
2022/09/09 00:39:01;;;;;;;0.50;0.50;;;13.50;99.90;;;;;;5092236;28;20509;-69
2022/09/09 00:42:00;;;;;;;0.40;0.40;;;13.50;99.90;;;;;;5091545;28;20465;-66
2022/09/09 00:45:02;;;;;;;0.40;0.40;;;13.50;99.90;;;;;;5092600;28;20520;-66
2022/09/09 00:47:51;;;;;;;0.40;0.40;;;13.50;99.90;;;;;;5092944;28;20504;-67
2022/09/09 00:50:50;;;;;;;0.40;0.40;;;13.50;99.90;;;;;;5093621;28;20506;-66
2022/09/09 00:53:55;;;;;;;0.40;0.40;;;13.40;99.90;;;;;;5092861;28;20447;-66
2022/09/09 00:56:54;;;;;;;0.40;0.40;;;13.40;99.90;;;;;;5093418;28;20419;-66
2022/09/09 00:59:48;;;;;;;0.40;0.40;;;13.40;99.90;;;;;;5092997;28;20456;-67
2022/09/09 01:02:44;;;;;;;0.40;0.40;;;13.40;99.90;;;;;;5093217;28;20446;-68
2022/09/09 01:05:40;;;;;;;0.40;0.40;;;13.40;99.90;;;;;;5093597;28;20427;-66
2022/09/09 01:09:03;;;;;;;0.40;0.40;;;13.40;99.90;;;;;;5091855;28;20970;-65
2022/09/09 01:12:02;;;;;;;0.43;0.43;;;13.40;99.90;;;;;;5086126;28;20925;-66
2022/09/09 01:14:53;;;;;;;0.40;0.40;;;13.40;99.90;;;;;;5092165;28;21005;-66
2022/09/09 01:17:53;;;;;;;0.40;0.40;;;13.30;99.90;;;;;;5091727;28;20419;-66
2022/09/09 01:20:51;;;;;;;0.40;0.40;;;13.30;99.90;;;;;;5087659;28;20495;-66
2022/09/09 01:23:54;;;;;;;0.40;0.40;;;13.30;99.90;;;;;;5087390;28;20810;-70
2022/09/09 01:26:45;;;;;;;0.40;0.40;;;13.30;99.90;;;;;;5091731;28;20433;-69
2022/09/09 01:29:34;;;;;;;0.40;0.40;;;13.30;99.90;;;;;;5092806;28;20465;-67
2022/09/09 01:32:41;;;;;;;0.40;0.40;;;13.30;99.90;;;;;;5092574;28;20442;-66
2022/09/09 01:35:38;;;;;;;0.40;0.40;;;13.30;99.90;;;;;;5096729;28;20418;-67
2022/09/09 01:38:26;;;;;;;0.40;0.40;;;13.30;99.90;;;;;;5097021;28;21055;-67
2022/09/09 01:41:14;;;;;;;0.50;0.50;;;13.30;99.90;;;;;;5096646;28;20454;-65
2022/09/09 01:44:04;;;;;;;0.40;0.40;;;13.30;99.90;;;;;;5096893;28;20438;-66
2022/09/09 01:46:52;;;;;;;0.40;0.40;;;13.30;99.90;;;;;;5098176;28;20418;-65
2022/09/09 01:49:41;;;;;;;0.40;0.40;;;13.20;99.90;;;;;;5096282;28;21007;-65
2022/09/09 01:52:29;;;;;;;0.40;0.40;;;13.20;99.90;;;;;;5096827;28;20533;-66
2022/09/09 01:55:21;;;;;;;0.40;0.40;;;13.20;99.90;;;;;;5096950;28;20434;-66
2022/09/09 01:58:23;;;;;;;0.40;0.40;;;13.20;99.90;;;;;;5096866;28;20425;-67
2022/09/09 02:01:24;;;;;;;0.40;0.40;;;13.20;99.90;;;;;;5096025;28;20410;-68
2022/09/09 02:04:26;;;;;;;0.40;0.40;;;13.10;99.90;;;;;;5096796;28;20477;-66
2022/09/09 02:07:31;;;;;;;0.40;0.40;;;13.20;99.90;;;;;;5096904;28;20805;-66
2022/09/09 02:10:23;;;;;;;0.40;0.40;;;13.10;99.90;;;;;;5095910;28;20466;-66
2022/09/09 02:13:14;;;;;;;0.40;0.40;;;13.10;99.90;;;;;;5095922;28;20971;-65
2022/09/09 02:16:07;;;;;;;0.40;0.40;;;13.10;99.90;;;;;;5096914;28;20429;-66
2022/09/09 02:19:01;;;;;;;0.40;0.40;;;13.10;99.90;;;;;;5096325;28;20437;-66
2022/09/09 02:21:50;;;;;;;0.40;0.40;;;13.00;99.90;;;;;;5097103;28;20423;-66
2022/09/09 02:24:40;;;;;;;0.40;0.40;;;13.00;99.90;;;;;;5097170;28;20429;-66
2022/09/09 02:27:29;;;;;;;0.40;0.40;;;13.00;99.90;;;;;;5096611;28;20923;-66
2022/09/09 02:30:17;;;;;;;0.40;0.40;;;13.00;99.90;;;;;;5096163;28;20502;-65
2022/09/09 02:33:10;;;;;;;0.40;0.40;;;12.90;99.90;;;;;;5096391;28;20828;-65
2022/09/09 02:36:03;;;;;;;0.40;0.40;;;13.00;99.90;;;;;;5096350;28;20513;-65
2022/09/09 02:38:53;;;;;;;0.40;0.40;;;12.90;99.90;;;;;;5097048;28;20491;-66
2022/09/09 02:41:43;;;;;;;0.40;0.40;;;12.90;99.90;;;;;;5096391;28;20827;-66
2022/09/09 02:44:31;;;;;;;0.40;0.40;;;12.90;99.90;;;;;;5095720;28;20426;-66
2022/09/09 02:47:28;;;;;;;0.40;0.40;;;12.90;99.90;;;;;;5095623;28;20511;-65
2022/09/09 02:50:20;;;;;;;0.40;0.40;;;12.90;99.90;;;;;;5095463;28;20454;-65
2022/09/09 02:53:17;;;;;;;0.40;0.40;;;12.80;99.90;;;;;;5094682;28;20446;-66
2022/09/09 02:56:09;;;;;;;0.47;0.47;;;12.90;99.90;;;;;;5096294;28;20418;-66
2022/09/09 02:58:57;;;;;;;0.50;0.50;;;12.80;99.90;;;;;;5095972;28;20438;-66
2022/09/09 03:01:45;;;;;;;0.40;0.40;;;12.80;99.90;;;;;;5095750;28;20528;-65
2022/09/09 03:04:33;;;;;;;0.40;0.40;;;12.80;99.90;;;;;;5095998;28;20433;-65
2022/09/09 03:07:22;;;;;;;0.40;0.40;;;12.80;99.90;;;;;;5095981;28;20800;-66
2022/09/09 03:10:12;;;;;;;0.43;0.43;;;12.80;99.90;;;;;;5094913;28;20470;-65
2022/09/09 03:13:00;;;;;;;0.40;0.40;;;12.80;99.90;;;;;;5096059;28;20529;-66
2022/09/09 03:15:49;;;;;;;0.40;0.40;;;12.80;99.90;;;;;;5095808;28;20537;-66
2022/09/09 03:18:37;;;;;;;0.40;0.40;;;12.80;99.90;;;;;;5094475;28;20431;-65
2022/09/09 03:21:25;;;;;;;0.40;0.40;;;12.80;99.90;;;;;;5094798;28;20411;-65
2022/09/09 03:24:14;;;;;;;0.40;0.40;;;12.70;99.90;;;;;;5095334;28;21047;-67
2022/09/09 03:27:03;;;;;;;0.40;0.40;;;12.70;99.90;;;;;;5094254;28;20931;-66
2022/09/09 03:29:52;;;;;;;0.40;0.40;;;12.70;99.90;;;;;;5094924;28;20460;-64
2022/09/09 03:32:40;;;;;;;0.40;0.40;;;12.70;99.90;;;;;;5095341;28;20454;-66
2022/09/09 03:35:29;;;;;;;0.40;0.40;;;12.70;99.90;;;;;;5095222;28;20419;-65
2022/09/09 03:38:17;;;;;;;0.40;0.40;;;12.70;99.90;;;;;;5095499;28;20541;-66
2022/09/09 03:41:07;;;;;;;0.40;0.40;;;12.70;99.90;;;;;;5094644;28;20950;-65
2022/09/09 03:43:56;;;;;;;0.40;0.40;;;12.70;99.90;;;;;;5095881;28;20455;-66
2022/09/09 03:46:44;;;;;;;0.40;0.40;;;12.70;99.90;;;;;;5096157;28;20426;-66
2022/09/09 03:49:33;;;;;;;0.40;0.40;;;12.60;99.90;;;;;;5094292;28;20452;-66
2022/09/09 03:52:21;;;;;;;0.40;0.40;;;12.60;99.90;;;;;;5094828;28;20509;-66
2022/09/09 03:55:10;;;;;;;0.40;0.40;;;12.60;99.90;;;;;;5094899;28;20418;-66
2022/09/09 03:58:00;;;;;;;0.40;0.40;;;12.60;99.90;;;;;;5094428;28;20426;-65
2022/09/09 04:00:56;;;;;;;0.40;0.40;;;12.60;99.90;;;;;;5094802;28;20422;-65
2022/09/09 04:03:45;;;;;;;0.43;0.43;;;12.60;99.90;;;;;;5094046;28;20441;-66
2022/09/09 04:06:33;;;;;;;0.50;0.50;;;12.60;99.90;;;;;;5094866;28;20548;-71
2022/09/09 04:09:21;;;;;;;0.50;0.50;;;12.50;99.90;;;;;;5094729;28;20812;-68
2022/09/09 04:12:13;;;;;;;0.40;0.40;;;12.50;99.90;;;;;;5094632;28;20419;-67
2022/09/09 04:15:01;;;;;;;0.40;0.40;;;12.50;99.90;;;;;;5094692;28;20533;-66
2022/09/09 04:17:51;;;;;;;0.40;0.40;;;12.50;99.90;;;;;;5094434;28;20426;-65
2022/09/09 04:20:39;;;;;;;0.40;0.40;;;12.40;99.90;;;;;;5095052;28;20431;-65
2022/09/09 04:23:29;;;;;;;0.40;0.40;;;12.40;99.90;;;;;;5095301;28;20990;-67
2022/09/09 04:26:17;;;;;;;0.40;0.40;;;12.40;99.90;;;;;;5094770;28;20426;-66
2022/09/09 04:29:06;;;;;;;0.40;0.40;;;12.40;99.90;;;;;;5093597;28;20422;-67
2022/09/09 04:31:55;;;;;;;0.40;0.40;;;12.40;99.90;;;;;;5094786;28;20477;-66
2022/09/09 04:34:44;;;;;;;0.50;0.50;;;12.40;99.90;;;;;;5092937;28;20418;-67
2022/09/09 04:37:32;;;;;;;0.40;0.40;;;12.40;99.90;;;;;;5094422;28;20512;-66
2022/09/09 04:40:22;;;;;;;0.40;0.40;;;12.40;99.90;;;;;;5094618;28;20430;-66
2022/09/09 04:43:10;;;;;;;0.40;0.40;;;12.50;99.90;;;;;;5095156;28;20439;-65
2022/09/09 04:46:01;;;;;;;0.40;0.40;;;12.50;99.90;;;;;;5094260;28;20426;-67
2022/09/09 04:48:50;;;;;;;0.40;0.40;;;12.60;99.90;;;;;;5094959;28;20430;-67
2022/09/09 04:51:40;;;;;;;0.40;0.40;;;12.60;99.90;;;;;;5095515;28;20477;-67
2022/09/09 04:54:28;;;;;;;0.50;0.50;;;12.70;99.90;;;;;;5094399;28;20445;-65
2022/09/09 04:57:16;;;;;;;0.40;0.40;;;12.70;99.90;;;;;;5094641;28;20419;-65
2022/09/09 05:00:07;;;;;;;0.40;0.40;;;12.70;99.90;;;;;;5093117;28;20426;-66
2022/09/09 05:02:55;;;;;;;0.40;0.40;;;12.80;99.90;;;;;;5093001;28;20457;-65
2022/09/09 05:05:43;;;;;;;0.40;0.40;;;12.80;99.90;;;;;;5093966;28;20880;-66
2022/09/09 05:08:32;;;;;;;0.40;0.40;;;12.80;99.90;;;;;;5092624;28;20419;-67
2022/09/09 05:11:23;;;;;;;0.40;0.40;;;12.90;99.90;;;;;;5097623;28;20461;-67
2022/09/09 05:14:12;;;;;;;0.40;0.40;;;12.90;99.90;;;;;;5098190;28;20934;-66
2022/09/09 05:17:00;;;;;;;0.40;0.40;;;12.90;99.90;;;;;;5096962;28;20462;-68
2022/09/09 05:19:49;;;;;;;0.47;0.47;;;13.00;99.90;;;;;;5097193;28;20462;-71
2022/09/09 05:22:37;;;;;;;0.40;0.40;;;13.00;99.90;;;;;;5097053;28;20434;-66
2022/09/09 05:25:27;;;;;;;0.40;0.40;;;13.00;99.90;;;;;;5095968;28;20418;-68
2022/09/09 05:28:15;;;;;;;0.40;0.40;;;13.00;99.90;;;;;;5096381;28;20426;-66
2022/09/09 05:31:04;;;;;;;0.40;0.40;;;13.10;99.90;;;;;;5096444;28;20465;-68
2022/09/09 05:33:53;;;;;;;0.40;0.40;;;13.10;99.90;;;;;;5096717;28;20454;-68
2022/09/09 05:36:41;;;;;;;0.40;0.40;;;13.10;99.90;;;;;;5096731;28;20443;-66
2022/09/09 05:39:29;;;;;;;0.40;0.40;;;13.10;99.90;;;;;;5096269;28;20434;-67
2022/09/09 05:42:18;;;;;;;0.40;0.40;;;13.20;99.90;;;;;;5083744;28;20422;-67
2022/09/09 05:45:08;;;;;;;0.40;0.40;;;13.30;99.90;;;;;;5083179;28;20670;-68
2022/09/09 05:47:57;;;;;;;0.40;0.40;;;13.30;99.90;;;;;;5085635;28;20858;-68
2022/09/09 05:50:54;;;;;;;0.40;0.40;;;13.40;99.90;;;;;;5074164;28;20470;-70
2022/09/09 05:53:42;;;;;;;0.40;0.40;;;13.50;99.90;;;;;;5073977;28;20447;-69
2022/09/09 05:56:32;;;;;;;0.40;0.40;;;13.60;99.90;;;;;;5073490;28;20427;-68
2022/09/09 05:59:23;;;;;;;0.50;0.50;;;13.60;99.90;;;;;;5073523;28;20434;-71
2022/09/09 06:02:12;;;;;;;0.40;0.40;;;13.80;99.90;;;;;;5076371;28;21069;-69
2022/09/09 06:05:00;;;;;;;0.40;0.40;;;13.80;99.90;;;;;;5081003;28;20794;-68
2022/09/09 06:07:48;;;;;;;0.40;0.40;;;13.90;99.90;;;;;;5073666;28;20434;-68
2022/09/09 06:10:36;;;;;;;0.40;0.40;;;14.00;99.90;;;;;;5072970;28;20447;-68
2022/09/09 06:13:24;;;;;;;0.40;0.40;;;14.00;99.90;;;;;;5074730;28;20474;-71
2022/09/09 06:16:16;;;;;;;0.40;0.40;;;14.00;99.90;;;;;;5073707;28;20461;-69
2022/09/09 06:19:04;;;;;;;0.40;0.40;;;14.00;99.90;;;;;;5072980;28;20954;-69
2022/09/09 06:21:52;;;;;;;0.40;0.40;;;14.10;99.90;;;;;;5091643;28;20429;-69
2022/09/09 06:24:40;;;;;;;0.40;0.40;;;14.00;99.90;;;;;;5093869;28;20423;-70
2022/09/09 06:27:29;;;;;;;0.40;0.40;;;14.00;99.90;;;;;;5093433;28;20427;-70
2022/09/09 06:30:18;;;;;;;0.40;0.40;;;14.00;99.90;;;;;;5093515;28;20884;-70
2022/09/09 06:33:07;;;;;;;0.40;0.40;;;14.10;99.90;;;;;;5093407;28;20462;-67
2022/09/09 06:35:56;;;;;;;0.40;0.40;;;14.10;99.90;;;;;;5093594;28;20427;-67
2022/09/09 06:38:45;;;;;;;0.40;0.40;;;14.30;99.90;;;;;;5093021;28;20427;-68
2022/09/09 06:41:34;;;;;;;0.40;0.40;;;14.40;99.90;;;;;;5093868;28;20415;-65
2022/09/09 06:44:22;;;;;;;0.40;0.40;;;14.60;99.90;;;;;;5093976;28;20439;-67
2022/09/09 06:47:10;;;;;;;0.40;0.40;;;14.70;99.90;;;;;;5089854;28;20446;-66
2022/09/09 06:50:00;;;;;;;0.50;0.50;;;14.80;99.90;;;;;;5088284;28;20935;-66
2022/09/09 06:52:48;;;;;;;0.40;0.40;;;14.80;99.90;;;;;;5077128;28;20458;-68
2022/09/09 06:55:36;;;;;;;0.40;0.40;;;14.80;99.90;;;;;;5072555;28;20410;-65
2022/09/09 06:58:24;;;;;;;0.40;0.40;;;14.90;99.90;;;;;;5090729;28;20431;-66
2022/09/09 07:01:14;;;;;;;0.40;0.40;;;14.90;99.90;;;;;;5091986;28;20430;-68
2022/09/09 07:04:04;;;;;;;0.40;0.40;;;15.00;99.90;;;;;;5071283;28;20423;-68
2022/09/09 07:06:53;;;;;;;0.40;0.40;;;15.10;99.90;;;;;;5072841;28;20280;-68
2022/09/09 07:09:41;;;;;;;0.40;0.40;;;15.20;99.90;;;;;;5083128;28;20464;-67
2022/09/09 07:12:30;;;;;;;0.40;0.40;;;15.30;99.90;;;;;;5092890;28;20572;-65
2022/09/09 07:15:18;;;;;;;0.40;0.40;;;15.30;99.90;;;;;;5092637;28;20430;-66
2022/09/09 07:18:06;;;;;;;0.40;0.40;;;15.50;99.90;;;;;;5092565;28;20423;-67
2022/09/09 07:20:56;;;;;;;0.40;0.40;;;15.60;99.90;;;;;;5091979;28;20422;-69
2022/09/09 07:23:45;;;;;;;0.40;0.40;;;15.60;99.90;;;;;;5092488;28;20442;-67
2022/09/09 07:26:35;;;;;;;0.40;0.40;;;15.70;99.90;;;;;;5092761;28;20934;-66
2022/09/09 07:29:23;;;;;;;0.50;0.50;;;15.90;99.90;;;;;;5092710;28;20430;-68
2022/09/09 07:32:11;;;;;;;0.40;0.40;;;16.10;99.90;;;;;;5091581;28;20481;-67
2022/09/09 07:35:12;;;;;;;0.40;0.40;;;16.10;99.90;;;;;;5092410;28;20453;-66
2022/09/09 07:38:07;;;;;;;0.40;0.40;;;16.20;99.90;;;;;;5092450;28;20483;-66
2022/09/09 07:41:07;;;;;;;0.40;0.40;;;16.20;99.90;;;;;;5091356;28;20207;-68
2022/09/09 07:43:58;;;;;;;0.40;0.40;;;16.30;99.90;;;;;;5092248;28;20430;-66
2022/09/09 07:46:47;;;;;;;0.40;0.40;;;16.40;99.90;;;;;;5083170;28;20326;-66
2022/09/09 07:49:37;;;;;;;0.40;0.40;;;16.60;99.90;;;;;;5086340;28;20607;-67
2022/09/09 07:52:29;;;;;;;0.40;0.40;;;16.90;99.90;;;;;;5082434;28;20470;-69
2022/09/09 07:55:19;;;;;;;0.40;0.40;;;17.20;99.90;;;;;;5091748;28;20289;-67
2022/09/09 07:58:17;;;;;;;0.40;0.40;;;17.40;99.90;;;;;;5092913;28;20581;-66
2022/09/09 08:01:11;;;;;;;0.40;0.40;;;17.60;99.90;;;;;;5090615;28;20203;-66
2022/09/09 08:04:01;;;;;;;0.40;0.40;;;17.70;99.90;;;;;;5091727;28;20214;-68
2022/09/09 08:06:53;;;;;;;0.40;0.40;;;17.80;99.90;;;;;;5090681;28;20282;-68
2022/09/09 08:09:42;;;;;;;0.50;0.50;;;17.90;99.90;;;;;;5091788;28;20200;-65
2022/09/09 08:12:34;;;;;;;0.40;0.40;;;18.00;99.90;;;;;;5090449;28;20254;-68
2022/09/09 08:15:26;;;;;;;0.40;0.40;;;18.00;99.90;;;;;;5091231;28;20208;-66
2022/09/09 08:18:21;;;;;;;0.40;0.40;;;18.10;99.90;;;;;;5092416;28;20227;-70
2022/09/09 08:21:17;;;;;;;0.40;0.40;;;18.20;99.90;;;;;;5092097;28;20224;-65
2022/09/09 08:24:10;;;;;;;0.40;0.40;;;18.20;99.90;;;;;;5091027;28;20219;-69
2022/09/09 08:26:59;;;;;;;0.40;0.40;;;18.30;99.90;;;;;;5089894;28;20269;-69
2022/09/09 08:29:48;;;;;;;0.40;0.40;;;18.40;99.90;;;;;;5091293;28;20242;-67
2022/09/09 08:32:39;;;;;;;0.40;0.40;;;18.50;99.90;;;;;;5090974;28;20304;-67
2022/09/09 08:35:36;;;;;;;0.40;0.40;;;18.60;99.90;;;;;;5091443;28;20290;-66
2022/09/09 08:38:25;;;;;;;0.40;0.40;;;18.60;99.90;;;;;;5090454;28;20200;-66
2022/09/09 08:41:34;;;;;;;0.40;0.40;;;18.60;99.90;;;;;;5085734;28;20250;-68
2022/09/09 08:44:35;;;;;;;0.40;0.40;;;18.70;99.90;;;;;;5072746;28;20219;-65
2022/09/09 08:47:36;;;;;;;0.40;0.40;;;18.70;99.90;;;;;;5080285;28;20664;-66
2022/09/09 08:50:35;;;;;;;0.40;0.40;;;18.80;99.90;;;;;;5071030;28;20200;-66
2022/09/09 08:53:31;;;;;;;0.40;0.40;;;19.10;99.90;;;;;;5072074;28;20228;-66
2022/09/09 08:56:25;;;;;;;0.40;0.40;;;19.20;99.90;;;;;;5076472;28;20333;-66
2022/09/09 08:59:18;;;;;;;0.40;0.40;;;19.30;99.90;;;;;;5085698;28;20289;-65
2022/09/09 09:02:18;;;;;;;0.50;0.50;;;19.40;99.90;;;;;;5086721;28;20576;-65
2022/09/09 09:05:23;;;;;;;0.40;0.40;;;19.60;99.90;;;;;;5093089;28;20274;-66
2022/09/09 09:08:25;;;;;;;1.60;1.50;;;19.80;99.90;;;;;;5093862;28;20199;-64
2022/09/09 09:11:14;;;;;;;0.40;0.40;;;20.10;99.90;;;;;;5093452;28;20683;-65
2022/09/09 09:14:09;;;;;;;0.50;0.50;;;20.50;99.90;;;;;;5079014;28;20221;-66
2022/09/09 09:17:00;;;;;;;0.40;0.40;;;20.90;99.90;;;;;;5073302;28;20350;-66
2022/09/09 09:19:55;;;;;;;0.40;0.40;;;21.20;99.90;;;;;;5071284;28;20205;-66
2022/09/09 09:22:50;;;;;;;0.40;0.40;;;21.40;99.90;;;;;;5073538;28;20286;-66
2022/09/09 09:25:44;;;;;;;0.68;0.68;;;21.50;99.90;;;;;;5073555;28;20232;-66
2022/09/09 09:28:36;;;;;;;0.40;0.40;;;21.50;99.90;;;;;;5073500;28;20201;-65
2022/09/09 09:31:29;;;;;;;0.40;0.40;;;21.50;99.90;;;;;;5072169;28;20204;-66
2022/09/09 09:34:18;;;;;;;0.40;0.40;;;21.70;99.90;;;;;;5072496;28;20590;-66
2022/09/09 09:37:19;;;;;;;0.60;0.60;;;21.80;99.90;;;;;;5074486;28;20203;-66
2022/09/09 09:40:18;;;;;;;1.15;1.05;;;21.80;99.90;;;;;;5073075;28;20269;-67
2022/09/09 09:43:22;;;;;;;0.40;0.40;;;21.60;99.90;;;;;;5073257;28;20212;-65
2022/09/09 09:46:23;;;;;;;0.40;0.40;;;21.70;99.90;;;;;;5078547;28;20200;-65
2022/09/09 09:49:23;;;;;;;0.40;0.40;;;22.10;99.90;;;;;;5084725;28;20199;-66
2022/09/09 09:52:21;;;;;;;0.40;0.40;;;22.20;99.90;;;;;;5093714;28;20207;-65
2022/09/09 09:55:15;;;;;;;0.40;0.40;;;22.30;99.90;;;;;;5078513;28;20201;-65
2022/09/09 09:58:06;;;;;;;0.40;0.40;;;22.40;99.90;;;;;;5075826;28;20619;-66
2022/09/09 10:01:00;;;;;;;0.40;0.40;;;22.30;99.90;;;;;;5076235;28;20193;-66
2022/09/09 10:03:55;;;;;;;0.40;0.40;;;22.20;99.90;;;;;;5075343;28;20275;-64
2022/09/09 10:06:48;;;;;;;0.40;0.40;;;22.10;99.90;;;;;;5075781;28;20565;-66
2022/09/09 10:09:41;;;;;;;0.40;0.40;;;21.90;99.90;;;;;;5075618;28;20209;-66
2022/09/09 10:12:43;;;;;;;0.40;0.40;;;21.60;99.90;;;;;;5089493;28;20247;-66
2022/09/09 10:15:45;;;;;;;0.40;0.40;;;21.30;99.90;;;;;;5078534;28;20577;-65
2022/09/09 10:18:58;;;;;;;0.40;0.40;;;21.10;99.90;;;;;;5086016;28;20197;-65
2022/09/09 10:22:03;;;;;;;0.40;0.40;;;20.90;99.90;;;;;;5076532;28;20208;-65
2022/09/09 10:25:19;;;;;;;0.40;0.40;;;20.70;99.90;;;;;;5075997;28;20662;-65
2022/09/09 10:28:38;;;;;;;0.40;0.40;;;20.60;99.90;;;;;;5074200;28;20207;-66
2022/09/09 10:31:39;;;;;;;0.40;0.40;;;20.60;99.90;;;;;;5074430;28;20673;-67
2022/09/09 10:34:49;;;;;;;0.40;0.40;;;20.40;99.90;;;;;;5074342;28;20221;-66
2022/09/09 10:38:06;;;;;;;0.50;0.50;;;20.50;99.90;;;;;;5074985;28;20690;-67
2022/09/09 10:41:13;;;;;;;0.40;0.40;;;20.50;99.90;;;;;;5074811;28;20197;-65
2022/09/09 10:44:18;;;;;;;0.50;0.50;;;20.50;99.90;;;;;;5074632;28;20594;-65
2022/09/09 10:47:28;;;;;;;0.40;0.40;;;20.50;99.90;;;;;;5084098;28;20204;-67
2022/09/09 10:50:45;;;;;;;0.40;0.40;;;20.50;99.90;;;;;;5094339;28;20204;-65
2022/09/09 10:54:10;;;;;;;0.90;0.90;;;20.60;99.90;;;;;;5094858;28;20258;-66
2022/09/09 10:57:13;;;;;;;0.40;0.40;;;20.60;99.90;;;;;;5074268;28;20204;-65
2022/09/09 11:00:06;;;;;;;0.40;0.40;;;20.60;99.90;;;;;;5073712;28;20583;-66
2022/09/09 11:03:06;;;;;;;0.40;0.40;;;20.60;99.90;;;;;;5074069;28;20224;-66
2022/09/09 11:06:02;;;;;;;0.40;0.40;;;20.80;99.90;;;;;;5075917;28;20570;-66
2022/09/09 11:08:56;;;;;;;0.40;0.40;;;20.90;99.90;;;;;;5088541;28;20206;-67
2022/09/09 11:11:51;;;;;;;0.40;0.40;;;21.20;99.90;;;;;;5076899;28;20251;-66
2022/09/09 11:14:44;;;;;;;0.50;0.50;;;21.40;99.90;;;;;;5076042;28;20224;-65
2022/09/09 11:17:41;;;;;;;0.40;0.40;;;21.50;99.90;;;;;;5073894;28;20749;-66
2022/09/09 11:20:31;;;;;;;0.40;0.40;;;21.50;99.90;;;;;;5085770;28;20585;-66
2022/09/09 11:23:28;;;;;;;0.40;0.40;;;21.70;99.90;;;;;;5095111;28;20723;-65
2022/09/09 11:26:27;;;;;;;0.40;0.40;;;21.90;99.90;;;;;;5094606;28;20200;-67
2022/09/09 11:29:52;;;;;;;0.40;0.40;;;22.10;99.90;;;;;;5094595;28;20207;-65
2022/09/09 11:33:11;;;;;;;0.40;0.40;;;22.30;99.90;;;;;;5082543;28;20223;-65
2022/09/09 11:36:35;;;;;;;0.40;0.40;;;22.50;99.90;;;;;;5056409;28;20288;-66
2022/09/09 11:39:50;;;;;;;0.40;0.40;;;22.50;99.90;;;;;;5094697;28;20204;-66
2022/09/09 11:42:44;;;;;;;0.40;0.40;;;22.60;99.90;;;;;;5087785;28;20220;-66
2022/09/09 11:45:37;;;;;;;0.40;0.40;;;22.90;99.90;;;;;;5074107;28;20201;-66
2022/09/09 11:48:36;;;;;;;0.40;0.40;;;23.40;99.90;;;;;;5080188;28;20278;-66
2022/09/09 11:51:31;;;;;;;0.40;0.40;;;24.00;99.90;;;;;;5091587;28;20204;-65
2022/09/09 11:54:34;;;;;;;0.40;0.40;;;24.20;99.90;;;;;;5085891;28;20215;-66
2022/09/09 11:57:33;;;;;;;0.40;0.40;;;24.00;99.90;;;;;;5094710;28;20207;-66
2022/09/09 12:00:44;;;;;;;0.40;0.40;;;23.80;99.90;;;;;;5093650;28;20203;-65
2022/09/09 12:03:50;;;;;;;0.40;0.40;;;23.20;99.90;;;;;;5080131;23;20635;-66
2022/09/09 12:07:31;;;;;;;0.40;0.40;;;23.20;99.90;;;;;;5054348;28;20208;-66
2022/09/09 12:10:29;;;;;;;0.40;0.40;;;23.00;99.90;;;;;;5053206;28;20214;-67
2022/09/09 12:13:21;;;;;;;0.40;0.40;;;22.90;99.90;;;;;;5053736;28;20248;-68
2022/09/09 12:16:32;;;;;;;0.40;0.40;;;22.90;99.90;;;;;;5053350;28;20241;-66
2022/09/09 12:19:23;;;;;;;0.50;0.50;;;22.80;99.90;;;;;;5054081;28;20197;-66
2022/09/09 12:22:24;;;;;;;0.40;0.40;;;22.90;99.90;;;;;;5053130;28;20249;-67
2022/09/09 12:25:23;;;;;;;0.40;0.40;;;22.80;99.90;;;;;;5053148;28;20554;-73
2022/09/09 12:28:16;;;;;;;0.40;0.40;;;22.80;99.90;;;;;;5053874;28;20265;-68
2022/09/09 12:31:13;;;;;;;0.40;0.40;;;22.70;99.90;;;;;;5052545;28;20280;-67
2022/09/09 12:34:10;;;;;;;0.40;0.40;;;22.70;99.90;;;;;;5052822;28;20224;-66
2022/09/09 12:37:03;;;;;;;0.40;0.40;;;22.70;99.90;;;;;;5052189;28;20197;-66
2022/09/09 12:39:56;;;;;;;0.40;0.40;;;22.80;99.90;;;;;;5052075;28;20276;-66
2022/09/09 12:42:44;;;;;;;0.40;0.40;;;22.70;99.90;;;;;;5054475;28;20221;-67
2022/09/09 12:45:35;;;;;;;0.40;0.40;;;22.60;99.90;;;;;;5053319;28;20671;-67
2022/09/09 12:48:31;;;;;;;0.40;0.40;;;22.60;99.90;;;;;;5052516;28;20201;-70
2022/09/09 12:51:25;;;;;;;0.40;0.40;;;22.70;99.90;;;;;;5053577;28;20198;-66
2022/09/09 12:54:15;;;;;;;0.40;0.40;;;22.90;99.90;;;;;;5052600;28;20221;-66
2022/09/09 12:57:04;;;;;;;0.40;0.40;;;23.00;99.90;;;;;;5046612;28;20230;-66
2022/09/09 12:59:53;;;;;;;0.40;0.40;;;23.00;99.90;;;;;;5032494;28;20198;-69
2022/09/09 13:02:50;;;;;;;0.40;0.40;;;23.00;99.90;;;;;;5032058;28;20265;-67
2022/09/09 13:05:43;;;;;;;0.40;0.40;;;22.90;99.90;;;;;;5031150;28;20198;-66
2022/09/09 13:08:31;;;;;;;0.40;0.40;;;22.80;99.90;;;;;;5032398;28;20202;-66
2022/09/09 13:11:24;;;;;;;0.40;0.40;;;22.60;99.90;;;;;;5031633;28;20205;-67
2022/09/09 13:14:19;;;;;;;0.40;0.40;;;22.50;99.90;;;;;;5031323;28;20240;-67
2022/09/09 13:17:18;;;;;;;0.40;0.40;;;22.30;99.90;;;;;;5033156;28;20206;-67
2022/09/09 13:20:07;;;;;;;0.50;0.50;;;22.20;99.90;;;;;;5032997;28;20209;-67
2022/09/09 13:22:57;;;;;;;0.40;0.40;;;22.00;99.90;;;;;;5033678;28;20648;-67
2022/09/09 13:25:55;;;;;;;0.40;0.40;;;21.90;99.90;;;;;;5034282;28;20225;-67
2022/09/09 13:28:45;;;;;;;0.40;0.40;;;21.90;99.90;;;;;;5033330;28;20328;-67
2022/09/09 13:31:37;;;;;;;0.40;0.40;;;22.20;99.90;;;;;;5037109;28;20213;-66
2022/09/09 13:34:31;;;;;;;0.40;0.40;;;23.40;99.90;;;;;;5035681;28;20213;-68
2022/09/09 13:37:25;;;;;;;0.40;0.40;;;26.70;99.90;;;;;;5035155;28;20202;-66
2022/09/09 13:40:21;;;;;;;0.40;0.40;;;30.20;99.90;;;;;;5034044;28;20209;-66
2022/09/09 13:43:19;;;;;;;0.40;0.40;;;30.70;99.90;;;;;;5034199;28;20222;-66
2022/09/09 13:46:25;;;;;;;0.40;0.40;;;29.70;99.90;;;;;;5034109;28;20194;-66
2022/09/09 13:49:22;;;;;;;0.52;0.52;;;29.30;99.90;;;;;;5033462;28;20198;-67
2022/09/09 13:52:12;;;;;;;0.40;0.40;;;29.80;99.90;;;;;;5033973;28;20202;-66
2022/09/09 13:55:00;;;;;;;0.40;0.40;;;29.60;98.80;;;;;;5033658;28;20325;-66
2022/09/09 13:57:54;;;;;;;0.40;0.40;;;28.70;98.90;;;;;;5033726;28;20793;-66
2022/09/09 14:00:43;;;;;;;0.40;0.40;;;28.10;98.50;;;;;;5033117;28;20604;-67
2022/09/09 14:03:31;;;;;;;0.40;0.40;;;27.60;98.00;;;;;;5034005;28;20253;-68
2022/09/09 14:06:21;;;;;;;0.40;0.40;;;27.10;98.10;;;;;;5034626;28;20194;-68
2022/09/09 14:09:13;;;;;;;0.40;0.40;;;26.80;98.60;;;;;;5034151;28;20202;-68
2022/09/09 14:12:02;;;;;;;0.40;0.40;;;26.70;99.50;;;;;;5034121;28;20202;-68
2022/09/09 14:14:51;;;;;;;0.40;0.40;;;26.70;99.50;;;;;;5034621;28;20225;-68
2022/09/09 14:17:39;;;;;;;0.40;0.40;;;26.80;98.60;;;;;;5033963;28;20206;-68
2022/09/09 14:20:27;;;;;;;0.40;0.40;;;26.70;98.30;;;;;;5033549;28;20198;-68
2022/09/09 14:23:15;;;;;;;0.40;0.40;;;27.50;98.30;;;;;;5033603;28;20237;-67
2022/09/09 14:26:03;;;;;;;0.40;0.40;;;29.00;95.70;;;;;;5034285;28;20220;-65
2022/09/09 14:28:52;;;;;;;0.40;0.40;;;30.80;94.00;;;;;;5033031;28;20205;-65
2022/09/09 14:31:44;;;;;;;0.50;0.50;;;32.50;90.80;;;;;;5033483;28;20663;-65
2022/09/09 14:34:32;;;;;;;0.40;0.40;;;33.20;86.80;;;;;;5032853;28;20206;-65
2022/09/09 14:37:21;;;;;;;0.40;0.40;;;32.50;88.20;;;;;;5033538;28;20232;-65
2022/09/09 14:40:11;;;;;;;0.40;0.40;;;30.60;87.10;;;;;;5033674;28;20198;-65
2022/09/09 14:42:59;;;;;;;0.40;0.40;;;28.80;90.80;;;;;;5033647;28;20717;-67
2022/09/09 14:45:48;;;;;;;0.40;0.40;;;27.80;92.70;;;;;;5032972;28;20198;-67
2022/09/09 14:48:40;;;;;;;0.40;0.40;;;27.20;94.40;;;;;;5033228;28;20206;-67
2022/09/09 14:51:28;;;;;;;0.40;0.40;;;26.60;94.70;;;;;;5034217;28;20284;-68
2022/09/09 14:54:16;;;;;;;0.40;0.40;;;26.00;95.90;;;;;;5033757;28;20226;-67
2022/09/09 14:57:04;;;;;;;0.40;0.40;;;25.80;97.30;;;;;;5034550;28;20308;-68
2022/09/09 14:59:53;;;;;;;0.85;0.85;;;25.70;97.50;;;;;;5033796;28;20275;-66
2022/09/09 15:02:41;;;;;;;0.40;0.40;;;25.70;98.60;;;;;;5033618;28;20241;-67
2022/09/09 15:05:31;;;;;;;0.40;0.40;;;25.90;98.80;;;;;;5033352;28;20224;-68